Time;durP1;ratioP1;P1;durP2;ratioP2;P2;SDS_P1;SDS_P2;PMS_P1;PMS_P2;Temp;Humidity;BMP_temperature;BMP_pressure;BME280_temperature;BME280_humidity;BME280_pressure;Samples;Min_cycle;Max_cycle;Signal;HPM_P1;HPM_P2
2022/11/13 00:00:43;;;;;;;25.52;16.05;;;8.50;99.90;;;;;;4773590;30;20054;-70
2022/11/13 00:03:09;;;;;;;27.02;17.20;;;8.50;99.90;;;;;;4773344;30;20431;-71
2022/11/13 00:05:35;;;;;;;24.13;15.85;;;8.50;99.90;;;;;;4772473;30;20050;-73
2022/11/13 00:08:00;;;;;;;26.80;17.10;;;8.50;99.90;;;;;;4773169;30;20058;-71
2022/11/13 00:10:26;;;;;;;30.38;16.55;;;8.60;99.90;;;;;;4757130;30;20047;-71
2022/11/13 00:12:53;;;;;;;24.60;16.10;;;8.70;99.90;;;;;;4773523;30;20126;-70
2022/11/13 00:15:19;;;;;;;26.30;17.27;;;8.70;99.90;;;;;;4772869;30;20078;-71
2022/11/13 00:17:44;;;;;;;24.92;16.55;;;8.70;99.90;;;;;;4772519;30;20423;-70
2022/11/13 00:20:10;;;;;;;23.63;15.57;;;8.70;99.90;;;;;;4772043;30;20083;-71
2022/11/13 00:22:36;;;;;;;28.58;17.23;;;8.70;99.90;;;;;;4773451;30;20048;-70
2022/11/13 00:25:02;;;;;;;31.40;19.58;;;8.70;99.90;;;;;;4773286;30;20086;-70
2022/11/13 00:27:30;;;;;;;25.52;17.08;;;8.70;99.90;;;;;;4772354;30;20083;-71
2022/11/13 00:29:55;;;;;;;25.10;16.65;;;8.90;99.90;;;;;;4772140;30;20062;-71
2022/11/13 00:32:21;;;;;;;27.05;17.58;;;8.90;99.90;;;;;;4773253;30;20047;-70
2022/11/13 00:34:47;;;;;;;39.47;22.70;;;9.00;99.90;;;;;;4772863;30;20422;-71
2022/11/13 00:37:12;;;;;;;27.30;17.88;;;9.00;99.90;;;;;;4772000;30;20127;-71
2022/11/13 00:39:38;;;;;;;26.08;17.08;;;9.00;99.90;;;;;;4772384;30;20079;-71
2022/11/13 00:42:04;;;;;;;28.75;17.48;;;9.00;99.90;;;;;;4772982;30;20044;-71
2022/11/13 00:44:29;;;;;;;26.10;16.42;;;9.00;99.90;;;;;;4772645;30;20126;-70
2022/11/13 00:46:55;;;;;;;25.58;16.20;;;8.90;99.90;;;;;;4772909;30;20047;-72
2022/11/13 00:49:21;;;;;;;26.13;15.75;;;8.90;99.90;;;;;;4772983;30;20052;-71
2022/11/13 00:51:46;;;;;;;27.13;16.98;;;8.90;99.90;;;;;;4773227;30;20334;-71
2022/11/13 00:54:12;;;;;;;30.60;17.02;;;8.80;99.90;;;;;;4772829;30;20430;-71
2022/11/13 00:56:38;;;;;;;33.58;20.08;;;8.90;99.90;;;;;;4773047;30;20050;-71
2022/11/13 00:59:03;;;;;;;31.60;19.00;;;9.00;99.90;;;;;;4772896;30;20450;-71
2022/11/13 01:01:29;;;;;;;28.30;18.10;;;9.20;99.90;;;;;;4772844;30;20036;-71
2022/11/13 01:03:55;;;;;;;28.65;18.15;;;9.20;99.90;;;;;;4772599;30;20047;-71
2022/11/13 01:06:24;;;;;;;25.45;15.88;;;9.20;99.90;;;;;;4773104;30;20046;-71
2022/11/13 01:08:53;;;;;;;28.30;17.27;;;9.20;99.90;;;;;;4772598;30;20465;-71
2022/11/13 01:11:21;;;;;;;39.83;24.08;;;9.20;99.90;;;;;;4772766;30;20095;-71
2022/11/13 01:13:48;;;;;;;26.70;17.15;;;9.20;99.90;;;;;;4772418;30;20051;-71
2022/11/13 01:16:16;;;;;;;27.02;17.25;;;9.20;99.90;;;;;;4771620;30;20048;-71
2022/11/13 01:18:41;;;;;;;28.27;18.63;;;9.30;99.90;;;;;;4772644;30;20105;-71
2022/11/13 01:21:16;;;;;;;29.83;17.70;;;9.20;99.90;;;;;;4772498;30;20064;-71
2022/11/13 01:23:42;;;;;;;34.58;21.00;;;9.20;99.90;;;;;;4776010;30;20048;-71
2022/11/13 01:26:20;;;;;;;27.58;18.20;;;9.10;99.90;;;;;;4775799;30;20381;-71
2022/11/13 01:28:47;;;;;;;37.83;22.48;;;9.10;99.90;;;;;;4775713;30;20046;-71
2022/11/13 01:31:16;;;;;;;38.03;23.23;;;9.10;99.90;;;;;;4776002;30;20071;-71
2022/11/13 01:33:42;;;;;;;35.38;20.08;;;9.20;99.90;;;;;;4775738;30;20055;-71
2022/11/13 01:36:27;;;;;;;34.53;21.58;;;9.30;99.90;;;;;;4759984;30;20043;-71
2022/11/13 01:38:53;;;;;;;35.47;20.23;;;9.40;99.90;;;;;;4775563;30;20050;-71
2022/11/13 01:41:22;;;;;;;44.03;23.83;;;9.40;99.90;;;;;;4775695;30;20042;-71
2022/11/13 01:43:49;;;;;;;31.58;20.20;;;9.30;99.90;;;;;;4760054;30;20051;-71
2022/11/13 01:46:32;;;;;;;32.50;19.77;;;9.30;99.90;;;;;;4775583;30;20048;-71
2022/11/13 01:49:17;;;;;;;32.95;20.98;;;9.40;99.90;;;;;;4775653;30;20395;-71
2022/11/13 01:52:05;;;;;;;29.08;17.83;;;9.40;99.90;;;;;;4775457;30;20039;-72
2022/11/13 01:54:39;;;;;;;31.77;20.15;;;9.30;99.90;;;;;;4775398;30;20046;-71
2022/11/13 01:57:05;;;;;;;29.20;17.75;;;9.20;99.90;;;;;;4775582;30;20044;-71
2022/11/13 01:59:38;;;;;;;29.17;18.33;;;9.20;99.90;;;;;;4775343;30;20050;-71
2022/11/13 02:02:05;;;;;;;31.73;19.60;;;9.20;99.90;;;;;;4775486;30;20122;-71
2022/11/13 02:04:31;;;;;;;27.92;17.80;;;9.20;99.90;;;;;;4774097;30;20047;-71
2022/11/13 02:07:12;;;;;;;31.67;18.83;;;9.20;99.90;;;;;;4775426;30;20054;-71
2022/11/13 02:09:45;;;;;;;28.80;18.52;;;9.20;99.90;;;;;;4775153;30;20062;-71
2022/11/13 02:12:14;;;;;;;35.17;20.40;;;9.20;99.90;;;;;;4775221;30;20127;-71
2022/11/13 02:14:43;;;;;;;33.80;21.88;;;9.20;99.90;;;;;;4774774;30;20058;-71
2022/11/13 02:17:14;;;;;;;30.02;18.55;;;9.20;99.90;;;;;;4775262;30;20369;-71
2022/11/13 02:19:44;;;;;;;39.60;21.80;;;9.20;99.90;;;;;;4774766;30;20434;-71
2022/11/13 02:22:23;;;;;;;36.03;20.35;;;9.10;99.90;;;;;;4774891;30;20087;-71
2022/11/13 02:24:49;;;;;;;35.80;20.63;;;9.20;99.90;;;;;;4775080;30;20057;-71
2022/11/13 02:27:28;;;;;;;30.55;18.67;;;9.20;99.90;;;;;;4774677;30;20051;-71
2022/11/13 02:29:53;;;;;;;32.15;18.58;;;9.20;99.90;;;;;;4774765;30;20466;-71
2022/11/13 02:32:19;;;;;;;31.15;18.35;;;9.20;99.90;;;;;;4774326;30;20048;-71
2022/11/13 02:34:45;;;;;;;38.13;20.73;;;9.30;99.90;;;;;;4774456;30;20048;-71
2022/11/13 02:37:10;;;;;;;35.53;20.67;;;9.30;99.90;;;;;;4774811;30;20039;-71
2022/11/13 02:39:36;;;;;;;34.78;19.13;;;9.40;99.90;;;;;;4773782;30;20052;-70
2022/11/13 02:42:02;;;;;;;33.33;20.27;;;9.50;99.90;;;;;;4774521;30;20404;-71
2022/11/13 02:44:28;;;;;;;32.47;18.65;;;9.60;99.90;;;;;;4774008;30;20051;-71
2022/11/13 02:46:53;;;;;;;33.17;20.15;;;9.60;99.90;;;;;;4774544;30;20043;-71
2022/11/13 02:49:19;;;;;;;32.05;20.23;;;9.60;99.90;;;;;;4774519;30;20510;-70
2022/11/13 02:51:45;;;;;;;37.38;21.98;;;9.60;99.90;;;;;;4774333;30;20083;-70
2022/11/13 02:54:10;;;;;;;33.20;19.48;;;9.60;99.90;;;;;;4774396;30;20090;-71
2022/11/13 02:56:36;;;;;;;31.90;20.48;;;9.60;99.90;;;;;;4774273;30;20373;-71
2022/11/13 02:59:01;;;;;;;34.80;19.20;;;9.60;99.90;;;;;;4774571;30;20043;-71
2022/11/13 03:01:27;;;;;;;35.92;19.40;;;9.60;99.90;;;;;;4773073;30;20404;-71
2022/11/13 03:03:53;;;;;;;28.63;18.08;;;9.60;99.90;;;;;;4774188;30;20051;-71
2022/11/13 03:06:18;;;;;;;33.08;20.60;;;9.60;99.90;;;;;;4774342;30;20334;-71
2022/11/13 03:08:44;;;;;;;28.08;17.58;;;9.60;99.90;;;;;;4773378;30;20048;-71
2022/11/13 03:11:11;;;;;;;39.63;21.30;;;9.70;99.90;;;;;;4774250;30;20442;-71
2022/11/13 03:13:37;;;;;;;30.25;17.17;;;9.60;99.90;;;;;;4774079;30;20154;-71
2022/11/13 03:16:14;;;;;;;30.40;17.60;;;9.60;99.90;;;;;;4773569;30;20050;-71
2022/11/13 03:18:40;;;;;;;26.90;17.10;;;9.60;99.90;;;;;;4773914;30;20054;-71
2022/11/13 03:21:12;;;;;;;30.38;16.08;;;9.40;99.90;;;;;;4787704;30;20064;-71
2022/11/13 03:23:39;;;;;;;26.92;16.02;;;9.30;99.90;;;;;;4773781;30;20051;-71
2022/11/13 03:26:08;;;;;;;27.40;16.85;;;9.20;99.90;;;;;;4774092;30;20078;-73
2022/11/13 03:28:34;;;;;;;32.42;16.05;;;9.20;99.90;;;;;;4773983;30;20047;-71
2022/11/13 03:31:00;;;;;;;27.23;18.13;;;9.20;99.90;;;;;;4772900;30;20054;-71
2022/11/13 03:33:26;;;;;;;31.27;17.85;;;9.20;99.90;;;;;;4773881;30;20043;-71
2022/11/13 03:35:52;;;;;;;29.58;18.60;;;9.30;99.90;;;;;;4773569;30;20343;-71
2022/11/13 03:38:17;;;;;;;30.20;18.40;;;9.40;99.90;;;;;;4773730;30;20051;-71
2022/11/13 03:40:43;;;;;;;32.88;18.90;;;9.40;99.90;;;;;;4773656;30;20044;-71
2022/11/13 03:43:09;;;;;;;33.83;21.75;;;9.40;99.90;;;;;;4773593;30;20054;-71
2022/11/13 03:45:34;;;;;;;35.63;22.30;;;9.40;99.90;;;;;;4772168;30;20152;-71
2022/11/13 03:48:00;;;;;;;31.17;18.92;;;9.40;99.90;;;;;;4773562;30;20052;-71
2022/11/13 03:50:26;;;;;;;31.02;18.38;;;9.40;99.90;;;;;;4773364;30;20395;-71
2022/11/13 03:52:52;;;;;;;25.55;16.33;;;9.30;99.90;;;;;;4772512;30;20346;-71
2022/11/13 03:55:17;;;;;;;26.42;17.40;;;9.30;99.90;;;;;;4773322;30;20054;-71
2022/11/13 03:57:43;;;;;;;26.00;17.40;;;9.20;99.90;;;;;;4773713;30;20040;-71
2022/11/13 04:00:09;;;;;;;28.38;16.27;;;9.20;99.90;;;;;;4772272;30;20108;-71
2022/11/13 04:02:35;;;;;;;25.60;17.85;;;9.30;99.90;;;;;;4773438;30;20043;-71
2022/11/13 04:05:01;;;;;;;31.73;17.92;;;9.20;99.90;;;;;;4772463;30;20434;-71
2022/11/13 04:07:26;;;;;;;30.45;18.30;;;9.20;99.90;;;;;;4773157;30;20395;-71
2022/11/13 04:09:52;;;;;;;27.73;17.40;;;9.30;99.90;;;;;;4773493;30;20493;-71
2022/11/13 04:12:18;;;;;;;23.63;16.08;;;9.30;99.90;;;;;;4773297;30;20144;-71
2022/11/13 04:14:43;;;;;;;24.45;15.52;;;9.30;99.90;;;;;;4772947;30;20191;-71
2022/11/13 04:17:09;;;;;;;24.83;16.50;;;9.30;99.90;;;;;;4773286;30;20044;-71
2022/11/13 04:19:35;;;;;;;26.38;16.58;;;9.30;99.90;;;;;;4772053;30;20059;-72
2022/11/13 04:22:00;;;;;;;22.80;15.43;;;9.20;99.90;;;;;;4772833;30;20075;-71
2022/11/13 04:24:26;;;;;;;22.00;15.07;;;9.30;99.90;;;;;;4773090;30;20051;-71
2022/11/13 04:26:52;;;;;;;22.70;15.02;;;9.20;99.90;;;;;;4773386;30;20040;-71
2022/11/13 04:29:17;;;;;;;23.65;15.52;;;9.20;99.90;;;;;;4773205;30;20052;-71
2022/11/13 04:31:43;;;;;;;25.30;15.98;;;9.20;99.90;;;;;;4773364;30;20427;-71
2022/11/13 04:34:09;;;;;;;23.58;15.80;;;9.30;99.90;;;;;;4772965;30;20502;-71
2022/11/13 04:36:34;;;;;;;31.38;18.58;;;9.30;99.90;;;;;;4773097;30;20039;-71
2022/11/13 04:39:00;;;;;;;25.35;14.77;;;9.30;99.90;;;;;;4772924;30;20127;-71
2022/11/13 04:44:10;;;;;;;22.73;15.20;;;9.40;99.90;;;;;;4772825;30;20122;-70
2022/11/13 04:46:35;;;;;;;26.95;15.32;;;9.30;99.90;;;;;;4772979;30;20342;-71
2022/11/13 04:49:01;;;;;;;24.08;15.68;;;9.20;99.90;;;;;;4773161;30;20083;-71
2022/11/13 04:51:27;;;;;;;27.45;18.08;;;9.20;99.90;;;;;;4772884;30;20086;-71
2022/11/13 04:53:52;;;;;;;30.15;18.60;;;9.20;99.90;;;;;;4773105;30;20048;-71
2022/11/13 04:56:18;;;;;;;31.83;19.45;;;9.20;99.90;;;;;;4774127;30;20083;-71
2022/11/13 04:58:44;;;;;;;25.33;17.27;;;9.30;99.90;;;;;;4776469;30;20058;-71
2022/11/13 05:01:09;;;;;;;24.80;16.73;;;9.30;99.90;;;;;;4775272;30;20078;-71
2022/11/13 05:03:37;;;;;;;23.67;15.63;;;9.30;99.90;;;;;;4775380;30;20067;-70
2022/11/13 05:06:08;;;;;;;22.67;15.55;;;9.30;99.90;;;;;;4775970;30;20097;-71
2022/11/13 05:08:34;;;;;;;34.75;19.90;;;9.20;99.90;;;;;;4776055;30;20324;-71
2022/11/13 05:11:00;;;;;;;27.20;15.23;;;9.20;99.90;;;;;;4783442;30;20047;-71
2022/11/13 05:13:29;;;;;;;22.92;16.05;;;9.20;99.90;;;;;;4794129;29;20051;-71
2022/11/13 05:16:07;;;;;;;23.83;15.65;;;9.10;99.90;;;;;;4793527;29;20048;-71
2022/11/13 05:18:35;;;;;;;22.42;14.10;;;9.10;99.90;;;;;;4793927;29;20098;-71
2022/11/13 05:21:01;;;;;;;28.75;17.77;;;9.00;99.90;;;;;;4793891;29;20055;-71
2022/11/13 05:23:27;;;;;;;22.35;14.32;;;8.90;99.90;;;;;;4793886;29;20040;-71
2022/11/13 05:25:59;;;;;;;26.27;15.32;;;8.90;99.90;;;;;;4793850;29;20073;-71
2022/11/13 05:28:25;;;;;;;23.02;15.30;;;8.90;99.90;;;;;;4793794;30;20047;-71
2022/11/13 05:30:51;;;;;;;22.10;14.55;;;8.90;99.90;;;;;;4792640;30;20104;-71
2022/11/13 05:33:16;;;;;;;24.00;14.50;;;8.90;99.90;;;;;;4793668;29;20047;-71
2022/11/13 05:35:42;;;;;;;21.05;13.93;;;8.80;99.90;;;;;;4792606;30;20055;-71
2022/11/13 05:38:08;;;;;;;21.20;15.18;;;8.80;99.90;;;;;;4793843;29;20043;-71
2022/11/13 05:40:34;;;;;;;22.02;14.02;;;8.80;99.90;;;;;;4793416;29;20126;-71
2022/11/13 05:42:59;;;;;;;23.88;15.27;;;8.80;99.90;;;;;;4793746;30;20058;-71
2022/11/13 05:45:25;;;;;;;20.33;13.93;;;8.90;99.90;;;;;;4792064;30;20346;-71
2022/11/13 05:47:50;;;;;;;23.55;14.00;;;8.90;99.90;;;;;;4793694;29;20342;-71
2022/11/13 05:50:16;;;;;;;19.90;13.00;;;8.80;99.90;;;;;;4793422;29;20464;-71
2022/11/13 05:52:42;;;;;;;23.08;14.15;;;8.80;99.90;;;;;;4793648;30;20054;-71
2022/11/13 05:55:08;;;;;;;30.05;17.35;;;8.80;99.90;;;;;;4792318;30;20228;-70
2022/11/13 05:57:33;;;;;;;27.10;16.35;;;8.80;99.90;;;;;;4793401;30;20177;-71
2022/11/13 05:59:59;;;;;;;26.27;16.85;;;8.80;99.90;;;;;;4793175;29;20070;-71
2022/11/13 06:02:25;;;;;;;26.60;17.00;;;8.80;99.90;;;;;;4792975;29;20081;-71
2022/11/13 06:04:50;;;;;;;24.25;15.60;;;8.90;99.90;;;;;;4793348;30;20058;-71
2022/11/13 06:07:16;;;;;;;26.63;16.70;;;8.90;99.90;;;;;;4791646;29;20051;-71
2022/11/13 06:09:41;;;;;;;32.10;17.38;;;9.00;99.90;;;;;;4793011;29;20430;-71
2022/11/13 06:12:07;;;;;;;24.55;14.82;;;8.90;99.90;;;;;;4792857;30;20077;-71
2022/11/13 06:14:33;;;;;;;21.02;13.52;;;8.90;99.90;;;;;;4791533;30;20044;-71
2022/11/13 06:16:58;;;;;;;20.58;13.77;;;8.90;99.90;;;;;;4793114;29;20048;-71
2022/11/13 06:19:24;;;;;;;22.02;13.73;;;8.80;99.90;;;;;;4777189;30;20047;-71
2022/11/13 06:21:50;;;;;;;19.85;12.65;;;8.70;99.90;;;;;;4792882;29;20499;-71
2022/11/13 06:24:15;;;;;;;19.13;12.25;;;8.70;99.90;;;;;;4791725;30;20051;-71
2022/11/13 06:26:41;;;;;;;22.55;12.50;;;8.60;99.90;;;;;;4792884;30;20047;-71
2022/11/13 06:29:10;;;;;;;17.77;12.80;;;8.50;99.90;;;;;;4792719;29;20043;-70
2022/11/13 06:31:36;;;;;;;17.80;12.48;;;8.50;99.90;;;;;;4792693;29;20043;-71
2022/11/13 06:34:03;;;;;;;18.98;13.05;;;8.40;99.90;;;;;;4791497;30;20047;-70
2022/11/13 06:36:35;;;;;;;20.05;12.38;;;8.40;99.90;;;;;;4792665;30;20080;-71
2022/11/13 06:39:00;;;;;;;22.58;12.35;;;8.30;99.90;;;;;;4792742;29;20110;-70
2022/11/13 06:41:30;;;;;;;21.48;12.88;;;8.20;99.90;;;;;;4792616;29;20039;-70
2022/11/13 06:43:57;;;;;;;22.67;12.45;;;8.20;99.90;;;;;;4792451;29;20460;-71
2022/11/13 06:46:25;;;;;;;19.98;12.80;;;8.10;99.90;;;;;;4792194;29;20062;-70
2022/11/13 06:48:52;;;;;;;18.23;11.48;;;8.10;99.90;;;;;;4792489;29;20050;-70
2022/11/13 06:51:20;;;;;;;18.95;11.55;;;8.10;99.90;;;;;;4792166;29;20422;-71
2022/11/13 06:53:46;;;;;;;19.67;12.07;;;8.00;99.90;;;;;;4792123;29;20334;-71
2022/11/13 06:56:12;;;;;;;23.30;14.90;;;8.10;99.90;;;;;;4792361;30;20062;-70
2022/11/13 06:58:38;;;;;;;24.05;14.38;;;8.10;99.90;;;;;;4791049;30;20438;-71
2022/11/13 07:01:08;;;;;;;28.80;15.75;;;8.10;99.90;;;;;;4792116;29;20043;-70
2022/11/13 07:03:34;;;;;;;23.98;13.38;;;8.20;99.90;;;;;;4791256;30;20308;-70
2022/11/13 07:06:02;;;;;;;18.58;12.18;;;8.20;99.90;;;;;;4792160;29;20043;-70
2022/11/13 07:08:27;;;;;;;18.17;11.88;;;8.20;99.90;;;;;;4792092;29;20126;-70
2022/11/13 07:10:54;;;;;;;21.25;13.52;;;8.10;99.90;;;;;;4792194;30;20083;-71
2022/11/13 07:13:21;;;;;;;20.60;12.93;;;8.10;99.90;;;;;;4791871;30;20051;-71
2022/11/13 07:15:47;;;;;;;23.67;14.38;;;8.00;99.90;;;;;;4791377;29;20741;-71
2022/11/13 07:18:13;;;;;;;24.60;14.25;;;8.00;99.90;;;;;;4792091;30;20050;-71
2022/11/13 07:20:39;;;;;;;25.85;14.45;;;8.00;99.90;;;;;;4791701;29;20143;-71
2022/11/13 07:23:05;;;;;;;30.75;16.20;;;8.10;99.90;;;;;;4792005;29;20122;-70
2022/11/13 07:25:31;;;;;;;26.80;15.52;;;8.10;99.90;;;;;;4791637;30;20126;-71
2022/11/13 07:27:57;;;;;;;21.13;13.68;;;8.20;99.90;;;;;;4792059;29;20353;-70
2022/11/13 07:30:23;;;;;;;29.55;17.02;;;8.20;99.90;;;;;;4791482;29;20501;-70
2022/11/13 07:32:49;;;;;;;33.08;18.08;;;8.20;99.90;;;;;;4791909;29;20130;-74
2022/11/13 07:35:15;;;;;;;27.55;16.08;;;8.20;99.90;;;;;;4791565;29;20047;-71
2022/11/13 07:37:42;;;;;;;23.35;14.60;;;8.20;99.90;;;;;;4791735;29;20058;-71
2022/11/13 07:40:08;;;;;;;21.85;13.95;;;8.20;99.90;;;;;;4791558;29;20110;-71
2022/11/13 07:42:33;;;;;;;25.92;15.98;;;8.20;99.90;;;;;;4791650;29;20047;-71
2022/11/13 07:44:59;;;;;;;29.02;16.85;;;8.20;99.90;;;;;;4791111;29;20046;-71
2022/11/13 07:47:25;;;;;;;26.92;15.48;;;8.20;99.90;;;;;;4789902;29;20064;-71
2022/11/13 07:49:51;;;;;;;26.42;16.35;;;8.30;99.90;;;;;;4773855;30;20051;-70
2022/11/13 07:52:16;;;;;;;23.88;13.38;;;8.30;99.90;;;;;;4773492;30;20109;-70
2022/11/13 07:54:42;;;;;;;26.15;16.42;;;8.30;99.90;;;;;;4773243;30;20091;-71
2022/11/13 07:57:08;;;;;;;20.63;12.98;;;8.30;99.90;;;;;;4773695;30;20043;-70
2022/11/13 07:59:34;;;;;;;27.95;16.25;;;8.20;99.90;;;;;;4773625;30;20051;-70
2022/11/13 08:02:00;;;;;;;24.27;15.25;;;8.10;99.90;;;;;;4773489;30;20130;-70
2022/11/13 08:04:25;;;;;;;22.77;14.48;;;8.00;99.90;;;;;;4773412;30;20181;-71
2022/11/13 08:06:51;;;;;;;24.48;15.52;;;7.90;99.90;;;;;;4773446;30;20043;-70
2022/11/13 08:09:17;;;;;;;20.13;13.30;;;8.00;99.90;;;;;;4772431;30;20122;-70
2022/11/13 08:11:42;;;;;;;27.80;16.83;;;8.00;99.90;;;;;;4773279;30;20079;-71
2022/11/13 08:14:09;;;;;;;27.45;16.65;;;8.00;99.90;;;;;;4772173;30;20048;-70
2022/11/13 08:16:35;;;;;;;20.00;13.15;;;8.10;99.90;;;;;;4773036;30;20051;-70
2022/11/13 08:19:02;;;;;;;28.02;15.80;;;8.00;99.90;;;;;;4773295;30;20048;-70
2022/11/13 08:21:27;;;;;;;26.77;15.00;;;8.00;99.90;;;;;;4773068;30;20358;-70
2022/11/13 08:23:53;;;;;;;27.08;18.13;;;8.00;99.90;;;;;;4773273;30;20052;-70
2022/11/13 08:26:19;;;;;;;28.50;15.63;;;8.10;99.90;;;;;;4773109;30;20043;-70
2022/11/13 08:28:45;;;;;;;28.45;17.30;;;8.00;99.90;;;;;;4773438;30;20121;-70
2022/11/13 08:31:12;;;;;;;23.63;15.35;;;8.10;99.90;;;;;;4773472;30;20307;-70
2022/11/13 08:33:37;;;;;;;28.77;16.25;;;8.30;99.90;;;;;;4776736;30;20055;-67
2022/11/13 08:36:03;;;;;;;27.42;14.80;;;8.40;99.90;;;;;;4776770;30;20048;-67
2022/11/13 08:38:29;;;;;;;30.13;17.80;;;8.40;99.90;;;;;;4776778;30;20396;-68
2022/11/13 08:41:03;;;;;;;28.17;17.58;;;8.40;99.90;;;;;;4776701;30;20055;-66
2022/11/13 08:43:29;;;;;;;23.98;15.05;;;8.50;99.90;;;;;;4776712;30;20066;-67
2022/11/13 08:45:54;;;;;;;23.38;15.18;;;8.50;99.90;;;;;;4776072;30;20043;-67
2022/11/13 08:48:21;;;;;;;29.25;16.88;;;8.60;99.90;;;;;;4775615;30;20040;-67
2022/11/13 08:50:51;;;;;;;23.85;14.52;;;8.60;99.90;;;;;;4775726;30;20111;-66
2022/11/13 08:53:17;;;;;;;22.90;14.35;;;8.60;99.90;;;;;;4776341;30;20046;-67
2022/11/13 08:55:42;;;;;;;25.02;16.45;;;8.50;99.90;;;;;;4776581;30;20334;-66
2022/11/13 08:58:08;;;;;;;27.27;14.98;;;8.60;99.90;;;;;;4776358;30;20051;-66
2022/11/13 09:00:34;;;;;;;29.05;16.30;;;8.60;99.90;;;;;;4776541;30;20054;-67
2022/11/13 09:03:00;;;;;;;25.75;14.75;;;8.70;99.90;;;;;;4775269;30;20048;-67
2022/11/13 09:05:26;;;;;;;23.35;14.60;;;8.70;99.90;;;;;;4776399;30;20058;-67
2022/11/13 09:07:56;;;;;;;22.08;14.40;;;8.80;99.90;;;;;;4776051;30;20126;-67
2022/11/13 09:10:22;;;;;;;21.13;14.38;;;8.90;99.90;;;;;;4776312;30;20048;-67
2022/11/13 09:12:47;;;;;;;24.63;15.85;;;9.10;99.90;;;;;;4776232;30;20105;-67
2022/11/13 09:15:13;;;;;;;24.92;15.93;;;9.20;99.90;;;;;;4774655;30;20051;-67
2022/11/13 09:17:39;;;;;;;22.85;14.30;;;9.30;99.90;;;;;;4776154;30;20442;-67
2022/11/13 09:20:06;;;;;;;23.02;15.40;;;9.50;99.90;;;;;;4775903;30;20131;-67
2022/11/13 09:22:33;;;;;;;27.48;16.63;;;9.40;99.90;;;;;;4775718;30;20060;-67
2022/11/13 09:24:58;;;;;;;21.95;14.93;;;9.50;99.90;;;;;;4776144;30;20058;-67
2022/11/13 09:27:24;;;;;;;26.58;15.88;;;9.50;99.90;;;;;;4775357;30;20405;-67
2022/11/13 09:29:49;;;;;;;23.92;14.38;;;9.60;99.90;;;;;;4776024;30;20047;-67
2022/11/13 09:32:16;;;;;;;24.52;15.00;;;9.70;99.90;;;;;;4775782;30;20446;-67
2022/11/13 09:34:41;;;;;;;23.38;15.30;;;9.60;99.90;;;;;;4775929;30;20098;-67
2022/11/13 09:37:07;;;;;;;23.60;14.52;;;9.70;99.90;;;;;;4775676;30;20461;-67
2022/11/13 09:39:33;;;;;;;24.70;14.93;;;9.70;99.90;;;;;;4775940;30;20040;-67
2022/11/13 09:42:14;;;;;;;22.23;14.88;;;9.90;99.90;;;;;;4774059;30;20044;-67
2022/11/13 09:44:52;;;;;;;19.95;13.73;;;10.10;99.90;;;;;;4783026;30;20096;-68
2022/11/13 09:47:29;;;;;;;19.80;13.60;;;10.20;99.90;;;;;;4782981;30;20051;-67
2022/11/13 09:50:03;;;;;;;21.15;14.05;;;10.30;99.90;;;;;;4789746;30;20047;-67
2022/11/13 09:52:35;;;;;;;20.58;14.10;;;10.30;99.90;;;;;;4777319;30;20051;-67
2022/11/13 09:55:03;;;;;;;21.58;13.63;;;10.40;99.90;;;;;;4791845;30;20051;-68
2022/11/13 09:58:11;;;;;;;20.13;13.20;;;10.40;99.90;;;;;;4793030;29;20193;-68
2022/11/13 10:00:38;;;;;;;21.30;13.70;;;10.50;99.90;;;;;;4788718;30;20400;-67
2022/11/13 10:03:19;;;;;;;18.02;13.35;;;10.60;99.90;;;;;;4773954;30;20387;-68
2022/11/13 10:06:09;;;;;;;18.90;13.48;;;10.70;99.90;;;;;;4787289;30;20058;-70
2022/11/13 10:09:17;;;;;;;21.92;13.23;;;10.80;99.90;;;;;;4775143;30;20134;-67
2022/11/13 10:11:56;;;;;;;19.27;12.75;;;10.90;99.90;;;;;;4764052;30;20478;-68
2022/11/13 10:14:30;;;;;;;20.95;12.95;;;11.00;99.90;;;;;;4774858;30;20182;-74
2022/11/13 10:17:24;;;;;;;19.55;12.60;;;11.20;99.90;;;;;;4789177;30;20055;-67
2022/11/13 10:19:55;;;;;;;16.55;11.80;;;11.50;99.90;;;;;;4775106;30;20044;-68
2022/11/13 10:22:50;;;;;;;21.00;12.57;;;11.70;99.90;;;;;;4774797;30;20465;-67
2022/11/13 10:25:19;;;;;;;17.60;13.02;;;11.80;99.90;;;;;;4773776;30;20062;-68
2022/11/13 10:27:55;;;;;;;18.73;12.38;;;11.80;99.90;;;;;;4775323;30;20043;-67
2022/11/13 10:30:21;;;;;;;20.45;12.98;;;11.90;99.90;;;;;;4789192;30;20112;-67
2022/11/13 10:32:47;;;;;;;16.55;11.82;;;11.90;99.90;;;;;;4774824;30;20436;-68
2022/11/13 10:35:27;;;;;;;16.83;12.05;;;12.00;99.90;;;;;;4773971;30;20048;-68
2022/11/13 10:38:05;;;;;;;22.23;13.15;;;12.10;99.90;;;;;;4779769;30;20371;-67
2022/11/13 10:40:34;;;;;;;17.50;11.45;;;12.50;99.90;;;;;;4784739;29;20092;-67
2022/11/13 10:43:23;;;;;;;16.63;11.98;;;12.60;99.90;;;;;;4780926;30;20058;-69
2022/11/13 10:45:58;;;;;;;16.27;11.10;;;12.70;99.90;;;;;;4783658;29;20063;-68
2022/11/13 10:48:35;;;;;;;19.52;11.95;;;12.90;99.90;;;;;;4783103;29;20051;-68
2022/11/13 10:51:19;;;;;;;16.50;12.02;;;13.00;99.90;;;;;;4782085;30;20454;-68
2022/11/13 10:53:46;;;;;;;17.88;11.98;;;13.00;99.90;;;;;;4781910;30;20102;-67
2022/11/13 10:56:23;;;;;;;20.35;12.07;;;12.90;99.90;;;;;;4784814;30;20043;-69
2022/11/13 10:59:08;;;;;;;17.98;11.68;;;12.70;99.90;;;;;;4782692;29;20451;-68
2022/11/13 11:01:34;;;;;;;15.25;10.20;;;12.80;99.90;;;;;;4786556;30;20043;-68
2022/11/13 11:04:03;;;;;;;16.77;10.77;;;12.80;99.90;;;;;;4781404;30;20036;-67
2022/11/13 11:06:34;;;;;;;18.27;11.52;;;12.90;99.90;;;;;;4785472;29;20098;-67
2022/11/13 11:09:26;;;;;;;16.05;11.32;;;12.80;99.90;;;;;;4786218;30;20055;-67
2022/11/13 11:12:16;;;;;;;16.40;10.85;;;12.90;99.90;;;;;;4780214;30;20039;-67
2022/11/13 11:14:59;;;;;;;16.55;11.23;;;13.10;99.90;;;;;;4787315;29;20059;-67
2022/11/13 11:17:33;;;;;;;14.57;10.40;;;13.30;99.90;;;;;;4773974;30;20051;-67
2022/11/13 11:20:18;;;;;;;14.32;9.95;;;13.50;99.90;;;;;;4778559;30;20118;-67
2022/11/13 11:22:46;;;;;;;17.05;10.50;;;14.00;99.90;;;;;;4780904;30;20203;-68
2022/11/13 11:25:19;;;;;;;15.75;10.32;;;14.30;99.90;;;;;;4784043;30;20060;-67
2022/11/13 11:28:04;;;;;;;15.55;9.52;;;14.80;99.70;;;;;;4771589;30;20059;-67
2022/11/13 11:30:49;;;;;;;14.93;9.43;;;15.00;99.60;;;;;;4773527;30;20083;-68
2022/11/13 11:33:24;;;;;;;13.80;9.35;;;15.40;99.40;;;;;;4773770;30;20103;-67
2022/11/13 11:36:03;;;;;;;13.35;9.20;;;15.50;98.70;;;;;;4773693;30;20054;-68
2022/11/13 11:38:39;;;;;;;11.98;8.88;;;15.60;98.50;;;;;;4773869;30;20056;-68
2022/11/13 11:41:14;;;;;;;11.63;8.80;;;16.10;98.70;;;;;;4772841;30;20051;-68
2022/11/13 11:43:44;;;;;;;16.83;9.57;;;16.50;98.50;;;;;;4773600;30;20087;-67
2022/11/13 11:46:16;;;;;;;16.10;9.65;;;16.80;97.80;;;;;;4773381;30;20050;-67
2022/11/13 11:48:42;;;;;;;11.85;8.85;;;17.10;97.20;;;;;;4773761;30;20107;-68
2022/11/13 11:51:31;;;;;;;10.48;7.78;;;17.40;97.40;;;;;;4773641;30;20043;-68
2022/11/13 11:54:23;;;;;;;12.25;8.18;;;17.30;96.90;;;;;;4773520;30;20050;-68
2022/11/13 11:56:56;;;;;;;11.05;8.23;;;17.40;96.90;;;;;;4765796;30;20059;-70
2022/11/13 11:59:42;;;;;;;14.52;10.23;;;17.90;97.10;;;;;;4773556;30;20346;-72
2022/11/13 12:02:40;;;;;;;12.98;8.52;;;18.20;96.70;;;;;;4773547;30;20513;-68
2022/11/13 12:05:23;;;;;;;12.57;8.75;;;18.40;96.50;;;;;;4771987;30;20131;-69
2022/11/13 12:07:52;;;;;;;11.38;8.23;;;18.50;96.50;;;;;;4773548;30;20054;-69
2022/11/13 12:10:30;;;;;;;10.82;7.78;;;18.30;96.20;;;;;;4773628;30;20048;-69
2022/11/13 12:13:20;;;;;;;12.80;8.35;;;18.60;96.20;;;;;;4773483;30;20435;-68
2022/11/13 12:15:57;;;;;;;12.32;8.82;;;18.40;96.30;;;;;;4772996;30;20052;-68
2022/11/13 12:19:02;;;;;;;10.50;7.68;;;18.60;96.40;;;;;;4772788;30;20388;-68
2022/11/13 12:21:34;;;;;;;10.85;7.65;;;18.80;96.40;;;;;;4773003;30;20067;-68
2022/11/13 12:24:47;;;;;;;9.77;7.63;;;19.50;96.30;;;;;;4773429;30;20418;-68
2022/11/13 12:27:18;;;;;;;9.00;7.28;;;19.70;95.60;;;;;;4773127;30;20040;-68
2022/11/13 12:30:19;;;;;;;11.00;7.47;;;19.80;95.80;;;;;;4773167;30;20052;-68
2022/11/13 12:33:11;;;;;;;11.10;6.95;;;19.90;95.10;;;;;;4773329;30;20044;-68
2022/11/13 12:35:38;;;;;;;11.32;7.38;;;20.50;95.40;;;;;;4764761;30;20063;-68
2022/11/13 12:38:12;;;;;;;11.25;7.18;;;20.40;95.40;;;;;;4773122;30;20051;-69
2022/11/13 12:41:05;;;;;;;11.95;7.35;;;20.80;95.10;;;;;;4772079;30;20090;-69
2022/11/13 12:44:12;;;;;;;11.18;7.07;;;21.20;95.00;;;;;;4772331;30;20048;-69
2022/11/13 12:46:40;;;;;;;8.50;6.88;;;21.50;94.80;;;;;;4772091;30;20355;-69
2022/11/13 12:49:29;;;;;;;9.15;7.15;;;21.50;94.40;;;;;;4772814;30;20474;-69
2022/11/13 12:52:03;;;;;;;10.05;7.10;;;21.40;94.40;;;;;;4772988;30;20051;-70